createdAt,value
2023-03-01T00:00:36.366Z,69.24438477
2023-03-01T00:01:37.824Z,69.34814453
2023-03-01T00:02:38.677Z,69.4519043
2023-03-01T00:03:39.314Z,69.4519043
2023-03-01T00:04:40.136Z,69.34814453
2023-03-01T00:05:41.022Z,69.34814453
2023-03-01T00:06:41.976Z,69.4519043
2023-03-01T00:07:43.753Z,69.55566406
2023-03-01T00:08:44.467Z,69.76318359
2023-03-01T00:09:45.390Z,69.76318359
2023-03-01T00:10:46.787Z,69.65942383
2023-03-01T00:11:48.415Z,69.76318359
2023-03-01T00:12:49.032Z,69.86694336
2023-03-01T00:13:49.932Z,70.07446289
2023-03-01T00:14:50.654Z,70.07446289
2023-03-01T00:15:51.529Z,69.97070313
2023-03-01T00:16:52.467Z,69.76318359
2023-03-01T00:17:53.684Z,69.52514648
2023-03-01T00:19:25.454Z,69.31152344
2023-03-01T00:20:26.391Z,69.31152344
2023-03-01T00:21:27.259Z,69.55566406
2023-03-01T00:22:28.842Z,69.42138672
2023-03-01T00:23:29.618Z,69.31152344
2023-03-01T00:24:30.424Z,69.34814453
2023-03-01T00:25:31.128Z,69.4519043
2023-03-01T00:26:32.299Z,69.65942383
2023-03-01T00:27:32.957Z,69.86694336
2023-03-01T00:28:33.779Z,69.76318359
2023-03-01T00:29:34.491Z,69.76318359
2023-03-01T00:30:35.188Z,69.65942383
2023-03-01T00:31:35.962Z,69.76318359
2023-03-01T00:32:37.757Z,69.76318359
2023-03-01T00:33:38.636Z,69.86694336
2023-03-01T00:34:39.476Z,69.76318359
2023-03-01T00:35:40.364Z,69.65942383
2023-03-01T00:36:41.004Z,69.76318359
2023-03-01T00:37:41.936Z,69.86694336
2023-03-01T00:38:42.663Z,69.97070313
2023-03-01T00:39:43.465Z,69.86694336
2023-03-01T00:40:44.252Z,69.86694336
2023-03-01T00:41:44.956Z,69.86694336
2023-03-01T00:42:46.788Z,70.07446289
2023-03-01T00:43:47.665Z,70.21484375
2023-03-01T00:44:49.336Z,70.31860352
2023-03-01T00:45:50.083Z,70.17822266
2023-03-01T00:46:50.869Z,70.31860352
2023-03-01T00:47:51.705Z,70.52612305
2023-03-01T00:48:52.625Z,70.42236328
2023-03-01T00:50:23.925Z,70.31860352
2023-03-01T00:51:24.773Z,70.52612305
2023-03-01T00:52:26.461Z,70.52612305
2023-03-01T00:53:27.424Z,70.42236328
2023-03-01T00:54:29.202Z,70.28198242
2023-03-01T00:55:30.128Z,70.31860352
2023-03-01T00:56:31.321Z,70.42236328
2023-03-01T00:57:31.667Z,70.42236328
2023-03-01T00:58:32.412Z,70.42236328
2023-03-01T00:59:33.151Z,70.31860352
2023-03-01T01:00:34.042Z,70.31860352
2023-03-01T01:01:34.923Z,70.42236328
2023-03-01T01:02:36.316Z,70.42236328
2023-03-01T01:03:36.984Z,70.31860352
2023-03-01T01:04:37.917Z,70.42236328
2023-03-01T01:05:38.802Z,70.52612305
2023-03-01T01:06:39.583Z,70.52612305
2023-03-01T01:07:40.651Z,70.62988281
2023-03-01T01:08:41.395Z,70.52612305
2023-03-01T01:09:42.219Z,70.52612305
2023-03-01T01:10:43.755Z,70.62988281
2023-03-01T01:11:44.626Z,70.62988281
2023-03-01T01:12:46.291Z,70.49560547
2023-03-01T01:13:47.128Z,70.62988281
2023-03-01T01:14:47.821Z,70.49560547
2023-03-01T01:15:48.735Z,70.49560547
2023-03-01T01:16:49.476Z,70.3918457
2023-03-01T01:17:50.300Z,70.28198242
2023-03-01T01:18:50.999Z,70.28198242
2023-03-01T01:19:52.331Z,70.49560547
2023-03-01T01:21:23.513Z,70.3918457
2023-03-01T01:22:24.869Z,70.28198242
2023-03-01T01:23:25.706Z,70.28198242
2023-03-01T01:24:26.506Z,70.28198242
2023-03-01T01:25:27.188Z,70.3918457
2023-03-01T01:26:28.147Z,70.28198242
2023-03-01T01:27:28.948Z,70.28198242
2023-03-01T01:28:29.710Z,70.28198242
2023-03-01T01:29:30.444Z,70.28198242
2023-03-01T01:30:31.159Z,70.28198242
2023-03-01T01:31:32.922Z,70.3918457
2023-03-01T01:32:34.309Z,70.28198242
2023-03-01T01:33:35.318Z,70.28198242
2023-03-01T01:34:36.041Z,70.28198242
2023-03-01T01:35:36.977Z,70.3918457
2023-03-01T01:36:37.612Z,70.28198242
2023-03-01T01:37:38.438Z,70.3918457
2023-03-01T01:38:39.302Z,70.3918457
2023-03-01T01:39:40.120Z,70.49560547
2023-03-01T01:40:41.093Z,70.59936523
2023-03-01T01:41:42.738Z,70.703125
2023-03-01T01:42:43.471Z,70.703125
2023-03-01T01:43:44.807Z,70.49560547
2023-03-01T01:44:45.678Z,70.3918457
2023-03-01T01:45:46.372Z,70.07446289
2023-03-01T01:46:48.321Z,69.97070313
2023-03-01T01:47:48.941Z,69.97070313
2023-03-01T01:48:49.924Z,69.97070313
2023-03-01T01:49:51.300Z,70.07446289
2023-03-01T01:50:52.596Z,70.28198242
2023-03-01T01:52:23.883Z,70.28198242
2023-03-01T01:53:25.142Z,70.17822266
2023-03-01T01:54:25.938Z,69.97070313
2023-03-01T01:55:26.876Z,69.86694336
2023-03-01T01:56:27.745Z,69.97070313
2023-03-01T01:57:28.299Z,70.07446289
2023-03-01T01:58:29.037Z,70.07446289
2023-03-01T01:59:29.930Z,70.07446289
2023-03-01T02:00:31.307Z,70.07446289
2023-03-01T02:01:32.104Z,70.28198242
2023-03-01T02:02:33.957Z,70.28198242
2023-03-01T02:03:34.598Z,70.28198242
2023-03-01T02:04:35.358Z,70.17822266
2023-03-01T02:05:36.224Z,70.28198242
2023-03-01T02:06:37.138Z,70.28198242
2023-03-01T02:07:38.791Z,70.28198242
2023-03-01T02:08:39.564Z,70.49560547
2023-03-01T02:09:40.346Z,70.62988281
2023-03-01T02:10:41.810Z,70.83740234
2023-03-01T02:11:42.714Z,70.94116211
2023-03-01T02:12:44.258Z,70.94116211
2023-03-01T02:13:45.062Z,71.04492188
2023-03-01T02:14:45.734Z,71.04492188
2023-03-01T02:15:47.324Z,71.04492188
2023-03-01T02:16:48.104Z,70.94116211
2023-03-01T02:17:49.010Z,70.83740234
2023-03-01T02:18:49.747Z,70.94116211
2023-03-01T02:19:50.578Z,71.04492188
2023-03-01T02:20:51.415Z,70.94116211
2023-03-01T02:22:23.948Z,71.04492188
2023-03-01T02:23:25.321Z,71.14868164
2023-03-01T02:24:26.136Z,71.14868164
2023-03-01T02:25:26.867Z,71.04492188
2023-03-01T02:26:27.831Z,70.94116211
2023-03-01T02:27:28.603Z,70.703125
2023-03-01T02:28:29.404Z,70.83740234
2023-03-01T02:29:30.294Z,70.94116211
2023-03-01T02:30:30.997Z,70.94116211
2023-03-01T02:31:32.354Z,70.83740234
2023-03-01T02:32:33.129Z,70.94116211
2023-03-01T02:33:34.822Z,71.25854492
2023-03-01T02:34:35.686Z,71.14868164
2023-03-01T02:35:36.463Z,71.14868164
2023-03-01T02:36:37.126Z,71.14868164
2023-03-01T02:37:38.016Z,71.14868164
2023-03-01T02:38:38.891Z,71.04492188
2023-03-01T02:39:39.810Z,71.04492188
2023-03-01T02:40:41.744Z,70.80688477
2023-03-01T02:41:42.614Z,70.703125
2023-03-01T02:42:43.327Z,70.73364258
2023-03-01T02:43:44.798Z,70.83740234
2023-03-01T02:44:45.711Z,70.83740234
2023-03-01T02:45:47.221Z,71.04492188
2023-03-01T02:46:48.065Z,71.14868164
2023-03-01T02:47:48.581Z,71.04492188
2023-03-01T02:48:49.465Z,70.94116211
2023-03-01T02:49:50.311Z,71.04492188
2023-03-01T02:50:51.258Z,70.83740234
2023-03-01T02:52:22.462Z,70.83740234
2023-03-01T02:53:24.087Z,70.83740234
2023-03-01T02:54:24.880Z,71.04492188
2023-03-01T02:55:26.308Z,71.04492188
2023-03-01T02:56:27.163Z,71.04492188
2023-03-01T02:57:28.071Z,70.94116211
2023-03-01T02:58:28.690Z,70.94116211
2023-03-01T02:59:29.541Z,71.14868164
2023-03-01T03:00:30.595Z,71.25854492
2023-03-01T03:01:31.397Z,71.14868164
2023-03-01T03:02:32.161Z,71.25854492
2023-03-01T03:03:33.761Z,71.25854492
2023-03-01T03:04:34.577Z,71.36230469
2023-03-01T03:05:35.351Z,71.04492188
2023-03-01T03:06:36.311Z,71.14868164
2023-03-01T03:07:37.128Z,71.14868164
2023-03-01T03:08:38.005Z,71.04492188
2023-03-01T03:09:38.599Z,71.14868164
2023-03-01T03:10:39.521Z,71.36230469
2023-03-01T03:11:41.202Z,71.25854492
2023-03-01T03:12:42.010Z,71.04492188
2023-03-01T03:13:43.623Z,71.0144043
2023-03-01T03:14:44.299Z,70.91064453
2023-03-01T03:15:45.219Z,70.91064453
2023-03-01T03:16:46.104Z,70.91064453
2023-03-01T03:17:46.896Z,70.83740234
2023-03-01T03:18:48.298Z,71.04492188
2023-03-01T03:19:48.981Z,70.91064453
2023-03-01T03:20:49.792Z,70.94116211
2023-03-01T03:21:50.611Z,70.91064453
2023-03-01T03:23:23.278Z,70.80688477
2023-03-01T03:24:24.059Z,70.59936523
2023-03-01T03:25:24.891Z,70.703125
2023-03-01T03:26:25.610Z,70.91064453
2023-03-01T03:27:26.416Z,70.80688477
2023-03-01T03:28:27.260Z,70.91064453
2023-03-01T03:29:28.141Z,71.0144043
2023-03-01T03:30:28.932Z,70.91064453
2023-03-01T03:31:29.595Z,71.0144043
2023-03-01T03:32:30.518Z,70.91064453
2023-03-01T03:33:32.319Z,70.80688477
2023-03-01T03:34:33.297Z,70.91064453
2023-03-01T03:35:34.177Z,70.91064453
2023-03-01T03:36:34.995Z,70.80688477
2023-03-01T03:37:35.678Z,70.91064453
2023-03-01T03:38:36.567Z,71.0144043
2023-03-01T03:39:37.400Z,71.0144043
2023-03-01T03:40:38.262Z,71.0144043
2023-03-01T03:41:39.610Z,71.11816406
2023-03-01T03:42:40.308Z,71.11816406
2023-03-01T03:43:41.787Z,71.11816406
2023-03-01T03:44:42.562Z,71.0144043
2023-03-01T03:45:44.345Z,70.91064453
2023-03-01T03:46:45.103Z,70.80688477
2023-03-01T03:47:45.888Z,70.703125
2023-03-01T03:48:46.748Z,70.59936523
2023-03-01T03:49:48.299Z,70.49560547
2023-03-01T03:50:49.103Z,70.59936523
2023-03-01T03:51:49.911Z,70.80688477
2023-03-01T03:52:51.028Z,70.91064453
2023-03-01T03:54:23.235Z,71.0144043
2023-03-01T03:55:24.046Z,71.11816406
2023-03-01T03:56:24.985Z,71.0144043
2023-03-01T03:57:25.714Z,71.0144043
2023-03-01T03:58:26.455Z,71.0144043
2023-03-01T03:59:27.279Z,71.0144043
2023-03-01T04:00:28.123Z,71.22192383
2023-03-01T04:01:28.999Z,71.11816406
2023-03-01T04:02:29.795Z,71.11816406
2023-03-01T04:03:31.241Z,71.22192383
2023-03-01T04:04:31.938Z,71.11816406
2023-03-01T04:05:32.828Z,70.91064453
2023-03-01T04:06:33.662Z,70.80688477
2023-03-01T04:07:34.550Z,70.80688477
2023-03-01T04:08:35.275Z,70.91064453
2023-03-01T04:09:35.911Z,71.0144043
2023-03-01T04:10:36.695Z,71.32568359
2023-03-01T04:11:37.533Z,71.46606445
2023-03-01T04:12:38.519Z,71.46606445
2023-03-01T04:13:39.815Z,71.42944336
2023-03-01T04:14:40.812Z,71.53320313
2023-03-01T04:15:41.509Z,71.42944336
2023-03-01T04:16:42.441Z,71.42944336
2023-03-01T04:17:44.221Z,71.32568359
2023-03-01T04:18:44.981Z,71.22192383
2023-03-01T04:19:45.895Z,71.22192383
2023-03-01T04:20:46.542Z,71.11816406
2023-03-01T04:21:47.276Z,71.0144043
2023-03-01T04:22:48.699Z,71.11816406
2023-03-01T04:23:49.515Z,71.11816406
2023-03-01T04:24:51.231Z,71.42944336
2023-03-01T04:26:22.436Z,71.36230469
2023-03-01T04:27:23.265Z,71.42944336
2023-03-01T04:28:24.101Z,71.46606445
2023-03-01T04:29:24.917Z,71.56982422
2023-03-01T04:30:25.926Z,71.53320313
2023-03-01T04:31:26.621Z,71.22192383
2023-03-01T04:32:27.352Z,71.22192383
2023-03-01T04:33:28.049Z,71.22192383
2023-03-01T04:34:29.810Z,71.22192383
2023-03-01T04:35:30.702Z,71.36230469
2023-03-01T04:36:32.550Z,71.32568359
2023-03-01T04:37:32.778Z,71.46606445
2023-03-01T04:38:33.728Z,71.56982422
2023-03-01T04:39:34.589Z,71.53320313
2023-03-01T04:40:35.355Z,71.32568359
2023-03-01T04:41:36.198Z,71.32568359
2023-03-01T04:42:36.890Z,71.22192383
2023-03-01T04:43:38.560Z,71.11816406
2023-03-01T04:44:39.330Z,71.32568359
2023-03-01T04:45:41.006Z,71.42944336
2023-03-01T04:46:41.687Z,71.32568359
2023-03-01T04:47:42.468Z,71.22192383
2023-03-01T04:48:43.874Z,71.22192383
2023-03-01T04:49:44.502Z,71.11816406
2023-03-01T04:50:45.410Z,71.11816406
2023-03-01T04:51:46.182Z,71.11816406
2023-03-01T04:52:47.070Z,71.22192383
2023-03-01T04:53:47.804Z,71.32568359
2023-03-01T04:54:49.191Z,71.46606445
2023-03-01T04:55:50.452Z,71.56982422
2023-03-01T04:57:21.687Z,71.46606445
2023-03-01T04:58:22.430Z,71.46606445
2023-03-01T04:59:23.370Z,71.46606445
2023-03-01T05:00:24.066Z,71.56982422
2023-03-01T05:01:24.925Z,71.56982422
2023-03-01T05:02:25.798Z,71.67358398
2023-03-01T05:03:26.540Z,71.77734375
2023-03-01T05:04:28.389Z,71.88110352
2023-03-01T05:05:28.947Z,71.77734375
2023-03-01T05:06:30.288Z,71.67358398
2023-03-01T05:07:30.709Z,71.53320313
2023-03-01T05:08:31.551Z,71.32568359
2023-03-01T05:09:32.293Z,71.32568359
2023-03-01T05:10:33.020Z,71.42944336
2023-03-01T05:11:33.826Z,71.22192383
2023-03-01T05:12:35.275Z,71.11816406
2023-03-01T05:13:36.037Z,71.0144043
2023-03-01T05:14:37.732Z,70.91064453
2023-03-01T05:15:38.431Z,70.80688477
2023-03-01T05:16:39.225Z,70.80688477
2023-03-01T05:17:39.968Z,70.80688477
2023-03-01T05:18:41.817Z,70.80688477
2023-03-01T05:19:42.569Z,70.80688477
2023-03-01T05:20:43.235Z,70.703125
2023-03-01T05:21:44.082Z,70.80688477
2023-03-01T05:22:44.853Z,71.0144043
2023-03-01T05:23:45.745Z,71.11816406
2023-03-01T05:24:47.204Z,71.0144043
2023-03-01T05:25:48.033Z,70.80688477
2023-03-01T05:26:48.696Z,70.80688477
2023-03-01T05:27:49.498Z,70.91064453
2023-03-01T05:29:20.754Z,70.91064453
2023-03-01T05:30:21.650Z,70.80688477
2023-03-01T05:31:22.422Z,70.80688477
2023-03-01T05:32:23.043Z,70.59936523
2023-03-01T05:33:23.921Z,70.59936523
2023-03-01T05:34:25.280Z,70.703125
2023-03-01T05:35:26.219Z,70.703125
2023-03-01T05:36:26.915Z,70.91064453
2023-03-01T05:37:28.289Z,71.0144043
2023-03-01T05:38:28.967Z,71.04492188
2023-03-01T05:39:29.794Z,70.94116211
2023-03-01T05:40:30.658Z,71.14868164
2023-03-01T05:41:31.425Z,71.25854492
2023-03-01T05:42:32.359Z,71.46606445
2023-03-01T05:43:32.991Z,71.56982422
2023-03-01T05:44:34.359Z,71.77734375
2023-03-01T05:45:35.192Z,71.88110352
2023-03-01T05:46:36.764Z,71.98486328
2023-03-01T05:47:37.554Z,72.08862305
2023-03-01T05:48:38.284Z,71.88110352
2023-03-01T05:49:39.816Z,71.88110352
2023-03-01T05:50:41.028Z,71.98486328
2023-03-01T05:51:41.804Z,72.08862305
2023-03-01T05:52:42.664Z,71.77734375
2023-03-01T05:53:43.361Z,71.46606445
2023-03-01T05:54:44.726Z,71.36230469
2023-03-01T05:55:45.649Z,71.36230469
2023-03-01T05:56:46.371Z,71.36230469
2023-03-01T05:57:47.219Z,71.46606445
2023-03-01T05:58:47.906Z,71.25854492
2023-03-01T05:59:48.653Z,71.25854492
2023-03-01T06:01:20.202Z,71.25854492
2023-03-01T06:02:21.138Z,71.25854492
2023-03-01T06:03:21.939Z,71.25854492
2023-03-01T06:04:23.375Z,71.36230469
2023-03-01T06:05:24.132Z,71.25854492
2023-03-01T06:06:24.750Z,71.36230469
2023-03-01T06:07:25.611Z,71.56982422
2023-03-01T06:08:27.345Z,71.67358398
2023-03-01T06:09:28.235Z,71.67358398
2023-03-01T06:10:28.889Z,71.67358398
2023-03-01T06:11:29.622Z,71.77734375
2023-03-01T06:12:30.314Z,71.64306641
2023-03-01T06:13:31.254Z,71.53320313
2023-03-01T06:14:32.853Z,71.42944336
2023-03-01T06:15:34.305Z,71.32568359
2023-03-01T06:16:34.491Z,71.22192383
2023-03-01T06:17:35.239Z,71.22192383
2023-03-01T06:18:36.813Z,71.0144043
2023-03-01T06:19:37.685Z,71.0144043
2023-03-01T06:20:38.502Z,70.91064453
2023-03-01T06:21:39.224Z,70.703125
2023-03-01T06:22:39.884Z,70.80688477
2023-03-01T06:23:40.880Z,71.11816406
2023-03-01T06:24:42.269Z,71.11816406
2023-03-01T06:25:43.060Z,71.0144043
2023-03-01T06:26:43.909Z,71.11816406
2023-03-01T06:27:44.510Z,71.11816406
2023-03-01T06:28:45.361Z,71.32568359
2023-03-01T06:29:46.230Z,71.32568359
2023-03-01T06:30:47.169Z,71.32568359
2023-03-01T06:31:47.975Z,71.42944336
2023-03-01T06:32:48.568Z,71.11816406
2023-03-01T06:34:19.776Z,71.0144043
2023-03-01T06:35:21.394Z,71.0144043
2023-03-01T06:36:22.041Z,71.11816406
2023-03-01T06:37:22.968Z,71.0144043
2023-03-01T06:38:23.632Z,70.91064453
2023-03-01T06:39:24.301Z,71.0144043
2023-03-01T06:40:25.152Z,71.0144043
2023-03-01T06:41:25.940Z,71.11816406
2023-03-01T06:42:26.838Z,71.11816406
2023-03-01T06:43:27.535Z,71.22192383
2023-03-01T06:44:28.162Z,71.32568359
2023-03-01T06:45:29.711Z,71.32568359
2023-03-01T06:46:30.848Z,71.32568359
2023-03-01T06:47:31.418Z,71.32568359
2023-03-01T06:48:32.736Z,71.22192383
2023-03-01T06:49:33.551Z,71.22192383
2023-03-01T06:50:34.282Z,71.22192383
2023-03-01T06:51:35.119Z,71.11816406
2023-03-01T06:52:35.939Z,71.11816406
2023-03-01T06:53:36.840Z,71.22192383
2023-03-01T06:54:37.559Z,71.32568359
2023-03-01T06:55:39.032Z,71.22192383
2023-03-01T06:56:39.960Z,71.32568359
2023-03-01T06:57:41.142Z,71.32568359
2023-03-01T06:58:41.919Z,71.32568359
2023-03-01T06:59:42.554Z,71.42944336
2023-03-01T07:00:43.251Z,71.42944336
2023-03-01T07:01:44.076Z,71.32568359
2023-03-01T07:02:44.813Z,71.11816406
2023-03-01T07:03:45.628Z,71.0144043
2023-03-01T07:04:47.218Z,71.0144043
2023-03-01T07:05:48.726Z,70.98388672
2023-03-01T07:07:19.752Z,70.77636719
2023-03-01T07:08:20.598Z,70.66650391
2023-03-01T07:09:21.376Z,70.66650391
2023-03-01T07:10:22.174Z,70.66650391
2023-03-01T07:11:22.854Z,70.66650391
2023-03-01T07:12:24.023Z,70.66650391
2023-03-01T07:13:24.844Z,70.80688477
2023-03-01T07:14:25.625Z,71.0144043
2023-03-01T07:15:27.321Z,71.22192383
2023-03-01T07:16:28.852Z,70.91064453
2023-03-01T07:17:29.437Z,70.88012695
2023-03-01T07:18:30.187Z,70.77636719
2023-03-01T07:19:31.035Z,70.88012695
2023-03-01T07:20:32.680Z,70.77636719
2023-03-01T07:21:33.499Z,70.77636719
2023-03-01T07:22:34.147Z,70.56274414
2023-03-01T07:23:34.951Z,70.45898438
2023-03-01T07:24:35.760Z,70.25146484
2023-03-01T07:25:37.160Z,70.35522461
2023-03-01T07:26:38.054Z,70.56274414
2023-03-01T07:27:38.735Z,70.66650391
2023-03-01T07:28:39.446Z,70.77636719
2023-03-01T07:29:40.183Z,70.77636719
2023-03-01T07:30:41.103Z,70.98388672
2023-03-01T07:31:41.891Z,70.88012695
2023-03-01T07:32:42.746Z,70.88012695
2023-03-01T07:33:43.406Z,70.88012695
2023-03-01T07:34:44.104Z,70.77636719
2023-03-01T07:35:45.717Z,70.88012695
2023-03-01T07:36:46.569Z,70.88012695
2023-03-01T07:37:47.320Z,70.77636719
2023-03-01T07:38:48.470Z,70.88012695
2023-03-01T07:40:19.734Z,70.98388672
2023-03-01T07:41:21.227Z,71.08764648
2023-03-01T07:42:22.097Z,71.08764648
2023-03-01T07:43:22.907Z,71.08764648
2023-03-01T07:44:23.864Z,70.98388672
2023-03-01T07:45:25.236Z,70.88012695
2023-03-01T07:46:26.124Z,70.88012695
2023-03-01T07:47:26.901Z,70.88012695
2023-03-01T07:48:28.759Z,70.88012695
2023-03-01T07:49:29.511Z,70.77636719
2023-03-01T07:50:30.177Z,70.66650391
2023-03-01T07:51:30.880Z,70.77636719
2023-03-01T07:52:31.783Z,70.77636719
2023-03-01T07:53:32.573Z,70.66650391
2023-03-01T07:54:33.521Z,70.77636719
2023-03-01T07:55:35.223Z,70.88012695
2023-03-01T07:56:35.951Z,70.98388672
2023-03-01T07:57:36.873Z,71.19140625
2023-03-01T07:58:37.651Z,72.44262695
2023-03-01T07:59:38.446Z,71.71020508
2023-03-01T08:00:39.051Z,71.19140625
2023-03-01T08:01:40.407Z,70.88012695
2023-03-01T08:02:41.233Z,70.66650391
2023-03-01T08:03:42.001Z,70.77636719
2023-03-01T08:04:42.938Z,70.77636719
2023-03-01T08:05:44.294Z,70.66650391
2023-03-01T08:06:45.111Z,70.56274414
2023-03-01T08:07:45.746Z,70.66650391
2023-03-01T08:08:46.627Z,70.66650391
2023-03-01T08:09:47.476Z,70.88012695
2023-03-01T08:11:19.565Z,70.77636719
2023-03-01T08:12:20.197Z,70.88012695
2023-03-01T08:13:21.022Z,70.88012695
2023-03-01T08:14:21.850Z,70.98388672
2023-03-01T08:15:23.373Z,70.88012695
2023-03-01T08:16:24.217Z,70.88012695
2023-03-01T08:17:24.854Z,70.77636719
2023-03-01T08:18:26.347Z,70.77636719
2023-03-01T08:19:26.991Z,70.77636719
2023-03-01T08:20:28.779Z,70.77636719
2023-03-01T08:21:29.549Z,70.77636719
2023-03-01T08:22:30.274Z,70.98388672
2023-03-01T08:23:31.178Z,70.98388672
2023-03-01T08:24:32.750Z,71.08764648
2023-03-01T08:25:34.290Z,71.9909668
2023-03-01T08:26:35.123Z,71.26464844
2023-03-01T08:27:35.758Z,71.16088867
2023-03-01T08:28:36.660Z,70.94726563
2023-03-01T08:29:37.515Z,71.26464844
2023-03-01T08:30:38.376Z,70.94726563
2023-03-01T08:31:39.209Z,70.63598633
2023-03-01T08:32:39.853Z,70.4284668
2023-03-01T08:33:40.821Z,70.63598633
2023-03-01T08:34:42.601Z,70.4284668
2023-03-01T08:35:43.353Z,70.1171875
2023-03-01T08:36:44.053Z,70.01342773
2023-03-01T08:37:44.768Z,70.22094727
2023-03-01T08:38:45.426Z,70.22094727
2023-03-01T08:39:46.364Z,70.1171875
2023-03-01T08:41:18.398Z,69.98291016
2023-03-01T08:42:19.188Z,70.19042969
2023-03-01T08:43:19.876Z,70.19042969
2023-03-01T08:44:20.746Z,70.19042969
2023-03-01T08:45:21.566Z,69.98291016
2023-03-01T08:46:23.271Z,69.98291016
2023-03-01T08:47:24.021Z,69.87304688
2023-03-01T08:48:25.809Z,69.87304688
2023-03-01T08:49:26.568Z,69.87304688
2023-03-01T08:50:27.355Z,69.87304688
2023-03-01T08:51:28.419Z,69.66552734
2023-03-01T08:52:29.017Z,69.56176758
2023-03-01T08:53:29.873Z,69.35424805
2023-03-01T08:54:30.554Z,69.14672852
2023-03-01T08:55:32.238Z,69.04296875
2023-03-01T08:56:33.114Z,69.25048828
2023-03-01T08:57:34.748Z,69.14672852
2023-03-01T08:58:35.419Z,69.04296875
2023-03-01T08:59:36.187Z,68.83544922
2023-03-01T09:00:36.975Z,68.93920898
2023-03-01T09:01:37.982Z,69.04296875
2023-03-01T09:02:38.784Z,69.14672852
2023-03-01T09:03:40.286Z,69.35424805
2023-03-01T09:04:40.986Z,69.25048828
2023-03-01T09:05:42.255Z,69.14672852
2023-03-01T09:06:43.864Z,69.14672852
2023-03-01T09:07:44.539Z,69.14672852
2023-03-01T09:08:45.258Z,69.25048828
2023-03-01T09:09:45.923Z,69.14672852
2023-03-01T09:10:46.764Z,68.93920898
2023-03-01T09:12:18.661Z,68.83544922
2023-03-01T09:13:20.266Z,68.93920898
2023-03-01T09:14:20.946Z,69.04296875
2023-03-01T09:15:21.772Z,69.14672852
2023-03-01T09:16:23.135Z,69.14672852
2023-03-01T09:17:24.161Z,69.04296875
2023-03-01T09:18:24.886Z,69.04296875
2023-03-01T09:19:27.317Z,69.04296875
2023-03-01T09:20:27.253Z,68.93920898
2023-03-01T09:21:39.461Z,68.83544922
2023-03-01T09:22:28.999Z,69.04296875
2023-03-01T09:23:29.869Z,68.93920898
2023-03-01T09:24:30.625Z,69.04296875
2023-03-01T09:25:32.221Z,68.93920898
2023-03-01T09:26:33.590Z,69.04296875
2023-03-01T09:27:34.728Z,68.93920898
2023-03-01T09:28:35.606Z,68.93920898
2023-03-01T09:29:36.252Z,68.93920898
2023-03-01T09:30:37.087Z,68.93920898
2023-03-01T09:31:37.690Z,69.04296875
2023-03-01T09:32:39.331Z,69.14672852
2023-03-01T09:33:40.073Z,69.14672852
2023-03-01T09:34:41.155Z,69.14672852
2023-03-01T09:35:41.891Z,69.14672852
2023-03-01T09:36:43.039Z,69.04296875
2023-03-01T09:37:43.846Z,69.04296875
2023-03-01T09:38:44.639Z,69.04296875
2023-03-01T09:39:46.224Z,69.14672852
2023-03-01T09:41:17.594Z,69.14672852
2023-03-01T09:42:18.288Z,69.25048828
2023-03-01T09:43:19.772Z,69.45800781
2023-03-01T09:44:20.617Z,69.56176758
2023-03-01T09:45:22.380Z,69.66552734
2023-03-01T09:46:23.781Z,69.56176758
2023-03-01T09:47:24.340Z,69.45800781
2023-03-01T09:48:25.734Z,69.45800781
2023-03-01T09:49:27.208Z,69.56176758
2023-03-01T09:50:28.004Z,69.56176758
2023-03-01T09:51:29.588Z,69.56176758
2023-03-01T09:52:31.241Z,69.56176758
2023-03-01T09:53:31.916Z,69.66552734
2023-03-01T09:54:33.906Z,69.66552734
2023-03-01T09:55:35.290Z,69.56176758
2023-03-01T09:56:36.828Z,69.76928711
2023-03-01T09:57:38.259Z,69.76928711
2023-03-01T09:58:39.166Z,70.19042969
2023-03-01T09:59:39.970Z,70.39794922
2023-03-01T10:00:41.111Z,70.19042969
2023-03-01T10:01:41.940Z,70.19042969
2023-03-01T10:02:43.670Z,70.29418945
2023-03-01T10:03:44.417Z,72.58300781
2023-03-01T10:04:45.104Z,71.09375
2023-03-01T10:06:32.232Z,70.05004883
2023-03-01T10:07:18.499Z,69.63500977
2023-03-01T10:08:19.200Z,69.63500977
2023-03-01T10:09:19.971Z,69.73876953
2023-03-01T10:10:21.755Z,69.42749023
2023-03-01T10:11:24.940Z,69.32373047
2023-03-01T10:12:23.429Z,69.53125
2023-03-01T10:13:24.108Z,69.53125
2023-03-01T10:14:24.918Z,69.32373047
2023-03-01T10:15:26.219Z,69.2199707
2023-03-01T10:16:27.717Z,69.11621094
2023-03-01T10:17:28.448Z,68.90869141
2023-03-01T10:18:29.130Z,68.90869141
2023-03-01T10:19:30.710Z,68.90869141
2023-03-01T10:20:31.424Z,68.80493164
2023-03-01T10:21:32.922Z,68.90869141
2023-03-01T10:22:33.173Z,68.70117188
2023-03-01T10:23:34.088Z,68.80493164
2023-03-01T10:24:34.786Z,68.90869141
2023-03-01T10:25:36.291Z,69.01245117
2023-03-01T10:26:37.695Z,68.70117188
2023-03-01T10:27:38.461Z,68.90869141
2023-03-01T10:28:40.058Z,68.90869141
2023-03-01T10:29:40.979Z,68.90869141
2023-03-01T10:30:41.833Z,68.90869141
2023-03-01T10:31:42.670Z,68.80493164
2023-03-01T10:32:43.500Z,68.87817383
2023-03-01T10:33:44.275Z,68.66455078
2023-03-01T10:34:45.084Z,68.66455078
2023-03-01T10:35:45.778Z,68.80493164
2023-03-01T10:37:17.559Z,68.80493164
2023-03-01T10:38:18.251Z,68.80493164
2023-03-01T10:39:19.085Z,68.90869141
2023-03-01T10:40:19.816Z,68.98193359
2023-03-01T10:41:20.582Z,68.98193359
2023-03-01T10:42:21.248Z,68.98193359
2023-03-01T10:43:22.718Z,68.66455078
2023-03-01T10:44:23.390Z,68.56079102
2023-03-01T10:45:25.839Z,68.66455078
2023-03-01T10:46:24.965Z,68.66455078
2023-03-01T10:47:26.093Z,68.66455078
2023-03-01T10:48:26.785Z,68.66455078
2023-03-01T10:49:27.443Z,68.56079102
2023-03-01T10:50:29.234Z,68.45703125
2023-03-01T10:51:30.228Z,68.35327148
2023-03-01T10:52:30.640Z,68.35327148
2023-03-01T10:53:31.314Z,68.24951172
2023-03-01T10:54:32.710Z,68.04199219
2023-03-01T10:55:33.591Z,67.83447266
2023-03-01T10:56:34.223Z,68.04199219
2023-03-01T10:57:35.557Z,68.14575195
2023-03-01T10:58:36.180Z,68.14575195
2023-03-01T10:59:36.987Z,68.24951172
2023-03-01T11:00:37.699Z,68.35327148
2023-03-01T11:01:38.514Z,68.14575195
2023-03-01T11:02:39.144Z,68.04199219
2023-03-01T11:03:39.865Z,67.93823242
2023-03-01T11:04:41.577Z,68.04199219
2023-03-01T11:05:42.368Z,68.14575195
2023-03-01T11:06:43.779Z,68.14575195
2023-03-01T11:07:44.375Z,68.14575195
2023-03-01T11:08:45.269Z,68.14575195
2023-03-01T11:10:16.567Z,68.04199219
2023-03-01T11:11:17.217Z,67.93823242